1975 Severe Tropical Cyclone BEVERLEY (1975081S12116)


IBTrACS version v04r00. Visit IBTrACS website for data access.
Please direct all questions to the IBTrACS Q and A forum

Storm track - Intensity - Wind Radii - Intensity Data - Source Data - All data

Summary Information

Storm ID 1975081S12116
Start Mar 22 00Z
Landfall Mar 31 00Z
Max Intensity 120 kt (Mar 28 00Z), 929 mb (Mar 28 00Z)
End Apr 3 01Z
ATCF IDs ,SH281975
Track status Best track data.

Storm track plot

Map of storm track

Intensity plots

Map of storm track

Radial wind information

No radial wind information for this storm


Position and Intensity Table

BASIN ISO_TIME_________ NATURE LAT LON WMO WIND WMO PRES BOM WIND BOM PRES NEUMANN WIND NEUMANN PRES
degrees north degrees east kts mb kts mb kts mb
SI 1975-03-22 00:00:00 TS -12.20 116.00
SI 01:00:00 TS -12.28 115.99 20 1006 20 1006
SI 03:00:00 TS -12.32 115.98 20 1006
SI 04:00:00 TS -12.35 115.98 20 1006 20 1006
SI 06:00:00 TS -12.45 115.99 20 1005 20 1005
SI 07:00:00 TS -12.50 116.00 20 1005 20 1005 20 1004
SI 09:00:00 TS -12.56 116.01 20 1004 20 1004
SI 10:00:00 TS -12.60 116.01 20 1004 20 1004 20 1004
SI 12:00:00 TS -12.64 116.02 20 1004 20 1004
SI 13:00:00 TS -12.67 116.02 20 1004 20 1004 20 1003
SI 15:00:00 TS -12.73 116.02 20 1004 22 1003
SI 16:00:00 TS -12.77 116.02 20 1004 20 1004 23 1003
SI 18:00:00 TS -12.84 116.02 20 1003 25 1003
SI 19:00:00 TS -12.87 116.02 20 1003 20 1003 25 1003
SI 21:00:00 TS -12.93 116.02 20 1003 25 1003
SI 22:00:00 TS -12.96 116.02 20 1003 20 1003 25 1003
SI 1975-03-23 00:00:00 TS -13.03 116.02 20 1003 25 1003
SI 01:00:00 TS -13.05 116.02 20 1003 20 1003 25 1003
SI 03:00:00 TS -13.09 116.02 20 1003 25 1003
SI 04:00:00 TS -13.11 116.02 20 1003 20 1003 25 1003
SI 06:00:00 TS -13.15 116.03 20 1003 25 1003
SI 07:00:00 TS -13.18 116.03 20 1003 20 1003 25 1003
SI 09:00:00 TS -13.23 116.05 20 1003 25 1003
SI 10:00:00 TS -13.26 116.05 20 1003 20 1003 25 1003
SI 12:00:00 TS -13.33 116.07 23 1003 25 1003
SI 13:00:00 TS -13.36 116.07 25 1003 25 1003 25 1002
SI 15:00:00 TS -13.43 116.07 25 1003 25 1002
SI 16:00:00 TS -13.47 116.07 25 1003 25 1003 25 1002
SI 18:00:00 TS -13.56 116.07 25 1002 25 1002
SI 19:00:00 TS -13.62 116.07 25 1002 25 1002 25 1002
SI 21:00:00 TS -13.74 116.07 25 1002 25 1002
SI 22:00:00 TS -13.80 116.07 25 1002 25 1002 25 1002
SI 1975-03-24 00:00:00 TS -13.93 116.07 25 1002 25 1002
SI 01:00:00 TS -13.99 116.07 25 1002 25 1002 25 1001
SI 03:00:00 TS -14.14 116.07 25 1001 27 1001
SI 04:00:00 TS -14.22 116.07 25 1001 25 1001 28 1000
SI 06:00:00 TS -14.38 116.06 25 999 30 1000
SI 07:00:00 TS -14.46 116.05 25 999 25 999 30 999
SI 09:00:00 TS -14.61 116.04 25 998 32 998
SI 10:00:00 TS -14.69 116.03 25 998 25 998 33 998
SI 12:00:00 TS -14.84 116.02 28 996 35 997
SI 13:00:00 TS -14.92 116.02 30 996 30 996 35 996
SI 15:00:00 TS -15.08 116.01 36 994 37 995
SI 16:00:00 TS -15.16 116.01 40 994 40 994 38 994
SI 18:00:00 TS -15.33 116.01 43 991 40 993
SI 19:00:00 TS -15.41 116.00 45 991 45 991 41 992
SI 21:00:00 TS -15.56 115.96 48 989 45 991
SI 22:00:00 TS -15.63 115.94 50 989 50 989 46 990
SI 1975-03-25 00:00:00 TS -15.78 115.92 50 988 50 989
SI 01:00:00 TS -15.85 115.91 50 988 50 988 50 988
SI 03:00:00 TS -15.97 115.91 50 986 52 986
SI 04:00:00 TS -16.03 115.91 50 986 50 986 53 985
SI 06:00:00 TS -16.15 115.91 50 983 55 984
SI 07:00:00 TS -16.21 115.90 50 983 50 983 56 983
SI 09:00:00 TS -16.35 115.86 53 980 60 981
SI 10:00:00 TS -16.41 115.84 55 980 55 980 61 980
SI 12:00:00 TS -16.53 115.82 58 977 65 978
SI 13:00:00 TS -16.58 115.81 60 977 60 977 65 977
SI 15:00:00 TS -16.69 115.79 63 974 67 975
SI 16:00:00 TS -16.74 115.78 65 973 65 973 68 974
SI 18:00:00 TS -16.84 115.75 68 970 70 972
SI 19:00:00 TS -16.89 115.74 70 970 70 970 71 971
SI 21:00:00 TS -17.02 115.72 73 967 75 969
SI 22:00:00 TS -17.08 115.70 75 967 75 967 76 968
SI 1975-03-26 00:00:00 TS -17.18 115.64 78 964 80 966
SI 01:00:00 TS -17.22 115.59 80 964 80 964 80 965
SI 03:00:00 TS -17.31 115.47 80 962 82 963
SI 04:00:00 TS -17.36 115.41 80 962 80 962 83 962
SI 06:00:00 TS -17.43 115.27 80 960 85 960
SI 07:00:00 TS -17.47 115.20 80 960 80 960 86 959
SI 09:00:00 TS -17.52 115.07 83 957 90 957
SI 10:00:00 TS -17.55 115.00 85 957 85 957 91 956
SI 12:00:00 TS -17.67 114.86 88 954 95 955
SI 13:00:00 TS -17.74 114.80 90 954 90 954 95 954
SI 15:00:00 TS -17.82 114.67 90 951 97 952
SI 16:00:00 TS -17.86 114.61 90 950 90 950 98 951
SI 18:00:00 TS -17.94 114.50 93 947 100 950
SI 19:00:00 TS -17.97 114.44 95 947 95 947 100 949
SI 21:00:00 TS -18.03 114.30 98 944 102 947
SI 22:00:00 TS -18.06 114.22 100 944 100 944 103 946
SI 1975-03-27 00:00:00 TS -18.10 114.08 100 942 105 944
SI 01:00:00 TS -18.12 114.02 100 942 100 942 105 943
SI 03:00:00 TS -18.18 113.89 100 940 107 942
SI 04:00:00 TS -18.22 113.84 100 940 100 940 108 941
SI 06:00:00 TS -18.27 113.73 100 938 110 940
SI 07:00:00 TS -18.29 113.68 100 938 100 938 110 939
SI 09:00:00 TS -18.33 113.56 103 937 112 938
SI 10:00:00 TS -18.35 113.50 105 937 105 937 113 938
SI 12:00:00 TS -18.38 113.39 105 936 115 937
SI 13:00:00 TS -18.39 113.34 105 936 105 936 115 936
SI 15:00:00 TS -18.39 113.23 105 934 115 935
SI 16:00:00 TS -18.39 113.17 105 934 105 934 115 934
SI 18:00:00 TS -18.38 113.04 108 932 115 933
SI 19:00:00 TS -18.37 112.98 110 932 110 932 115 932
SI 21:00:00 TS -18.32 112.86 110 930 117 931
SI 22:00:00 TS -18.30 112.81 110 930 110 930 118 931
SI 1975-03-28 00:00:00 TS -18.26 112.69 110 929 120 930
SI 01:00:00 TS -18.24 112.62 110 929 110 929 120 930
SI 03:00:00 TS -18.21 112.47 110 929 120 930
SI 04:00:00 TS -18.19 112.38 110 930 110 930 120 930
SI 06:00:00 TS -18.19 112.21 110 930 120 930
SI 07:00:00 TS -18.19 112.11 110 931 110 931 119 930
SI 09:00:00 TS -18.20 111.92 110 932 117 931
SI 10:00:00 TS -18.22 111.82 110 933 110 933 116 931
SI 12:00:00 TS -18.26 111.63 106 934 115 933
SI 13:00:00 TS -18.27 111.53 105 935 105 935 115 933
SI 15:00:00 TS -18.30 111.33 105 936 115 935
SI 16:00:00 TS -18.30 111.24 105 937 105 937 115 935
SI 18:00:00 TS -18.30 111.07 105 938 115 937
SI 19:00:00 TS -18.29 111.00 105 939 105 939 114 937
SI 21:00:00 TS -18.27 110.86 101 939 112 938
SI 22:00:00 TS -18.26 110.80 100 940 100 940 111 938
SI 1975-03-29 00:00:00 TS -18.25 110.69 100 941 110 940
SI 01:00:00 TS -18.26 110.65 100 942 100 942 109 940
SI 03:00:00 TS -18.33 110.64 100 943 107 942
SI 04:00:00 TS -18.36 110.66 100 944 100 944 106 943
SI 06:00:00 TS -18.43 110.70 96 945 105 945
SI 07:00:00 TS -18.47 110.73 95 946 95 946 104 945
SI 09:00:00 TS -18.53 110.80 95 947 102 947
SI 10:00:00 TS -18.57 110.83 95 948 95 948 101 947
SI 12:00:00 TS -18.66 110.92 91 950 100 949
SI 13:00:00 TS -18.70 110.96 90 951 90 951 99 949
SI 15:00:00 TS -18.77 111.04 90 953 97 952
SI 16:00:00 TS -18.80 111.08 90 954 90 954 96 952
SI 18:00:00 TS -18.87 111.15 86 956 95 955
SI 19:00:00 TS -18.91 111.18 85 958 85 958 93 955
SI 21:00:00 TS -18.98 111.25 81 960 90 958
SI 22:00:00 TS -19.02 111.29 80 961 80 961 88 958
SI 1975-03-30 00:00:00 TS -19.13 111.39 80 963 85 961
SI 01:00:00 TS -19.20 111.46 80 964 80 964 84 961
SI 03:00:00 TS -19.38 111.64 80 965 82 963
SI 04:00:00 TS -19.48 111.75 80 966 80 966 81 963
SI 06:00:00 TS -19.70 111.99 80 966 80 965
SI 07:00:00 TS -19.82 112.10 80 966 80 966 80 965
SI 09:00:00 TS -20.04 112.33 80 966 80 965
SI 10:00:00 TS -20.15 112.44 80 966 80 966 80 965
SI 12:00:00 TS -20.38 112.65 76 966 80 966
SI 13:00:00 TS -20.49 112.76 75 967 75 967 80 966
SI 15:00:00 TS -20.73 113.00 75 967 80 966
SI 16:00:00 TS -20.86 113.12 75 968 75 968 80 966
SI 18:00:00 TS -21.13 113.35 71 968 80 967
SI 19:00:00 TS -21.27 113.46 70 969 70 969 79 967
SI 21:00:00 TS -21.59 113.69 70 969 77 968
SI 22:00:00 TS -21.78 113.79 70 969 70 969 76 968
SI 1975-03-31 00:00:00 TS -22.19 113.94 70 969 75 969
SI 01:00:00 TS -22.42 113.99 70 970 70 970 72 969
SI 03:00:00 TS -22.92 114.06 70 970 67 969
SI 04:00:00 TS -23.18 114.08 70 970 70 970 65 969
SI 06:00:00 TS -23.71 114.13 63 971 60 970
SI 07:00:00 TS -23.98 114.17 60 972 60 972 58 970
SI 09:00:00 TS -24.53 114.27 56 972 55 971
SI 10:00:00 TS -24.82 114.33 55 973 55 973 53 971
SI 12:00:00 TS -25.41 114.46 51 973 50 973
SI 13:00:00 TS -25.71 114.53 50 974 50 974 48 973
SI 15:00:00 TS -26.34 114.68 46 974 45 975
SI 16:00:00 TS -26.65 114.76 45 975 45 975 43 976
SI 18:00:00 TS -27.24 114.99 41 978 40 978
SI 19:00:00 TS -27.52 115.12 40 980 40 980 39 979
SI 21:00:00 TS -28.05 115.41 36 984 37 983
SI 22:00:00 TS -28.32 115.56 35 987 35 987 36 985
SI 1975-04-01 00:00:00 TS -28.85 115.89 31 991 35 989
SI 01:00:00 TS -29.13 116.06 30 994 30 994 35 989
SI 03:00:00 TS -29.75 116.44 30 994 35 992
SI 04:00:00 TS -30.07 116.63 30 995 30 995 35 992
SI 06:00:00 TS -30.65 117.03 30 995 35 995
SI 07:00:00 TS -30.92 117.21 30 996 30 996
SI 09:00:00 TS -31.46 117.53 30 996
SI 10:00:00 TS -31.77 117.69 30 997 30 997
SI 12:00:00 TS -32.36 117.96 30 997
SI 13:00:00 TS -32.82 118.10 30 997 30 997
SI 15:00:00 TS -33.32 118.24 30 996
SI 16:00:00 TS -33.57 118.33 30 996 30 996
SI 18:00:00 TS -34.00 118.57 26 995
SI 19:00:00 TS -34.22 118.73 25 995 25 995
SI 21:00:00 TS -34.69 119.07 25 994
SI 22:00:00 TS -34.93 119.29 25 994 25 994
SI 1975-04-02 00:00:00 TS -35.43 119.90 25 994
SI 01:00:00 TS -35.65 120.24 25 994 25 994
SI 03:00:00 TS -36.02 120.90 25 994
SI 04:00:00 TS -36.18 121.23 25 994 25 994
SI 06:00:00 TS -36.48 121.82 25 993
SI 07:00:00 TS -36.62 122.10 25 993 25 993
SI 09:00:00 TS -36.93 122.68 25 993
SI 10:00:00 TS -37.09 122.97 25 993 25 993
SI 12:00:00 TS -37.41 123.52 25 993
SI 13:00:00 TS -37.60 123.79 25 993 25 993
SI 15:00:00 TS -38.04 124.38 25 993
SI 16:00:00 TS -38.28 124.68 25 993 25 993
SI 18:00:00 TS -38.77 125.29 25 992
SI 19:00:00 TS -39.05 125.62 25 992 25 992
SI 21:00:00 TS -39.68 126.34 25 992
SI 22:00:00 TS -40.02 126.73 25 992 25 992
SI 1975-04-03 00:00:00 TS -40.68 127.57 25 992
SI 01:00:00 NR -41.00 128.00 25 992 25 992

Source Information

Agency Information
USA bsh281975.txt
TOKYO
CMA
HKO
NEWDELHI
REUNION
BOM IDCKMSTM0S.csv:Line=9610:BEVERLEY
NADI
WELLINGTON
DS824 s_hem.dat:1290:28S
TD9636 cons_worldwide_trop_cyclone_18710101-19891231-006:Line=9894
TD9635
NEUMANN tracks.sh:Storm=439:BEVERLEY:BSH2875:BM452
MLC

All available IBTrACS Data

SEASON BASIN SUBBASIN ISO_TIME_________ NATURE LAT LON WMO WIND WMO PRES WMO AGENCY DIST2LAND LANDFALL IFLAG USA AGENCY USA ATCF_ID USA LAT USA LON USA SSHS BOM LAT BOM LON BOM TYPE BOM WIND BOM PRES BOM TNUM BOM CI BOM PRES_METHOD DS824 LAT DS824 LON DS824 STAGE TD9636 LAT TD9636 LON TD9636 STAGE NEUMANN LAT NEUMANN LON NEUMANN CLASS NEUMANN WIND NEUMANN PRES STORM SPEED STORM DIR
Year degrees north degrees east kts mb km km degrees north degrees east 1 degrees north degrees east kts mb 1 1 degrees north degrees east degrees north degrees east degrees north degrees east kts mb kts degrees
1975 SI WA 1975-03-22 00:00:00 TS -12.20 116.00 361 361 O________OO___ jtwc_sh SH281975 -12.20 116.00 -1 -12.20 116.00 TC -12.20 116.00 2 5 198
1975 SI WA 01:00:00 TS -12.28 115.99 20 1006 bom 372 372 P_____O__PP___ SH281975 -12.22 116.00 -1 -12.70 115.90 20 20 1006 1.00 1.00 -12.22 116.00 TC -12.21 116.00 2 3 183
1975 SI WA 03:00:00 TS -12.32 115.98 372 372 P_____P__PP___ SH281975 -12.25 116.00 -1 -12.69 115.89 20 20 1006 -12.25 116.00 TC -12.23 116.00 2 1 203
1975 SI WA 04:00:00 TS -12.35 115.98 20 1006 bom 372 372 P_____O__PP___ SH281975 -12.27 116.00 -1 -12.70 115.90 20 20 1006 1.00 -12.27 116.00 TC -12.24 116.00 2 3 0
1975 SI WA 06:00:00 TS -12.45 115.99 394 394 O_____P__OP_O_ jtwc_sh SH281975 -12.30 116.00 -1 -12.77 115.97 20 20 1005 -12.30 116.00 TC -12.26 116.00 2 -12.80 116.00 TC 20 1005 3 174
1975 SI WA 07:00:00 TS -12.50 116.00 20 1005 bom 394 394 P_____O__PP_P_ SH281975 -12.31 116.00 -1 -12.80 116.00 20 20 1005 1.00 -12.31 116.00 TC -12.28 116.00 2 -12.82 116.02 TC 20 1004 2 0
1975 SI WA 09:00:00 TS -12.56 116.01 405 405 P_____P__PP_P_ SH281975 -12.34 116.00 -1 -12.80 116.01 20 20 1004 -12.34 116.00 TC -12.32 116.00 2 -12.85 116.06 TC 20 1004 2 0
1975 SI WA 10:00:00 TS -12.60 116.01 20 1004 bom 405 405 P_____O__PP_P_ SH281975 -12.36 116.00 -1 -12.80 116.00 20 20 1004 1.00 -12.36 116.00 TC -12.34 116.00 2 -12.87 116.08 TC 20 1004 2 166
1975 SI WA 12:00:00 TS -12.64 116.02 405 405 O_____P__OO_O_ jtwc_sh SH281975 -12.40 116.00 -1 -12.86 116.00 20 20 1004 -12.40 116.00 TC -12.40 116.00 2 -12.90 116.10 TC 20 1004 2 161
1975 SI WA 13:00:00 TS -12.67 116.02 20 1004 bom 416 416 P_____O__PP_P_ SH281975 -12.42 116.00 -1 -12.90 116.00 20 20 1004 1.00 -12.42 116.00 TC -12.43 116.00 2 -12.92 116.11 TC 20 1003 2 0
1975 SI WA 15:00:00 TS -12.73 116.02 416 416 P_____P__PP_P_ SH281975 -12.48 116.00 -1 -12.97 116.00 20 20 1004 -12.48 116.00 TC -12.51 116.00 2 -12.95 116.11 TC 22 1003 2 194
1975 SI WA 16:00:00 TS -12.77 116.02 20 1004 bom 427 427 P_____O__PP_P_ SH281975 -12.52 116.00 -1 -13.00 116.00 20 20 1004 1.00 -12.52 116.00 TC -12.55 115.99 2 -12.97 116.11 TC 23 1003 2 190
1975 SI WA 18:00:00 TS -12.84 116.02 427 427 O_____P__OP_O_ jtwc_sh SH281975 -12.60 116.00 -1 -13.07 116.00 20 20 1003 -12.60 116.00 TC -12.64 115.99 2 -13.00 116.10 TC 25 1003 2 183
1975 SI WA 19:00:00 TS -12.87 116.02 20 1003 bom 438 438 P_____O__PP_P_ SH281975 -12.65 116.00 -1 -13.10 116.00 20 20 1003 1.00 -12.65 116.00 TC -12.69 115.99 2 -13.01 116.10 TC 25 1003 2 170
1975 SI WA 21:00:00 TS -12.93 116.02 438 438 P_____P__PP_P_ SH281975 -12.76 116.00 -1 -13.10 116.00 20 20 1003 -12.76 116.00 TC -12.78 115.99 2 -13.04 116.10 TC 25 1003 2 0
1975 SI WA 22:00:00 TS -12.96 116.02 20 1003 bom 450 450 P_____O__PP_P_ SH281975 -12.81 116.00 -1 -13.10 116.00 20 20 1003 1.00 -12.81 116.00 TC -12.82 115.99 2 -13.06 116.10 TC 25 1003 2 175
1975 SI WA 1975-03-23 00:00:00 TS -13.03 116.02 450 450 O_____P__OO_O_ jtwc_sh SH281975 -12.90 116.00 -1 -13.17 116.00 20 20 1003 -12.90 116.00 TC -12.90 116.00 2 -13.10 116.10 TC 25 1003 2 0
1975 SI WA 01:00:00 TS -13.05 116.02 20 1003 bom 461 461 P_____O__PP_P_ SH281975 -12.93 116.00 -1 -13.20 116.00 20 20 1003 1.00 1.00 -12.93 116.00 TC -12.93 116.01 2 -13.13 116.10 TC 25 1003 1 0
1975 SI WA 03:00:00 TS -13.09 116.02 461 461 P_____P__PP_P_ SH281975 -12.96 115.99 -1 -13.20 116.00 20 20 1003 -12.96 115.99 TC -12.98 116.02 2 -13.20 116.10 TC 25 1003 1 157
1975 SI WA 04:00:00 TS -13.11 116.02 20 1003 bom 461 461 P_____O__PP_P_ SH281975 -12.97 115.99 -1 -13.20 116.00 20 20 1003 1.00 -12.97 115.99 TC -13.00 116.03 2 -13.24 116.10 TC 25 1003 1 0
1975 SI WA 06:00:00 TS -13.15 116.03 471 471 O_____P__OP_O_ jtwc_sh SH281975 -13.00 116.00 -1 -13.26 116.00 20 20 1003 -13.00 116.00 TC -13.04 116.05 2 -13.30 116.10 TC 25 1003 1 0
1975 SI WA 07:00:00 TS -13.18 116.03 20 1003 bom 471 471 P_____O__PP_P_ SH281975 -13.03 116.01 -1 -13.30 116.00 20 20 1003 1.00 -13.03 116.01 TC -13.06 116.06 2 -13.32 116.10 TC 25 1003 2 0
1975 SI WA 09:00:00 TS -13.23 116.05 471 469 P_____P__PP_P_ SH281975 -13.09 116.05 -1 -13.37 116.00 20 20 1003 -13.09 116.05 TC -13.11 116.08 2 -13.34 116.10 TC 25 1003 2 165
1975 SI WA 10:00:00 TS -13.26 116.05 20 1003 bom 480 480 P_____O__PP_P_ SH281975 -13.13 116.07 -1 -13.40 116.00 20 20 1003 1.50 -13.13 116.07 TC -13.14 116.09 2 -13.36 116.10 TC 25 1003 2 168
1975 SI WA 12:00:00 TS -13.33 116.07 480 480 O_____P__OO_O_ jtwc_sh SH281975 -13.20 116.10 -1 -13.47 116.00 20 23 1003 -13.20 116.10 TC -13.20 116.10 2 -13.40 116.10 TC 25 1003 2 176
1975 SI WA 13:00:00 TS -13.36 116.07 25 1003 bom 491 491 P_____O__PP_P_ SH281975 -13.23 116.11 -1 -13.50 116.00 20 25 1003 1.50 -13.23 116.11 TC -13.24 116.10 2 -13.44 116.10 TC 25 1002 2 0
1975 SI WA 15:00:00 TS -13.43 116.07 491 491 P_____P__PP_P_ SH281975 -13.28 116.11 -1 -13.56 116.00 20 25 1003 -13.28 116.11 TC -13.31 116.11 2 -13.53 116.10 TC 25 1002 2 0
1975 SI WA 16:00:00 TS -13.47 116.07 25 1003 bom 502 502 P_____O__PP_P_ SH281975 -13.32 116.11 -1 -13.60 116.00 20 25 1003 1.50 -13.32 116.11 TC -13.35 116.11 2 -13.59 116.10 TC 25 1002 3 188
1975 SI WA 18:00:00 TS -13.56 116.07 513 513 O_____P__OP_O_ jtwc_sh SH281975 -13.40 116.10 -1 -13.73 116.00 20 25 1002 -13.40 116.10 TC -13.45 116.11 2 -13.70 116.10 TC 25 1002 3 188
1975 SI WA 19:00:00 TS -13.62 116.07 25 1002 bom 513 513 P_____O__PP_P_ SH281975 -13.45 116.10 -1 -13.80 116.00 20 25 1002 1.50 -13.45 116.10 TC -13.50 116.11 2 -13.75 116.10 TC 25 1002 4 185
1975 SI WA 21:00:00 TS -13.74 116.07 524 524 P_____P__PP_P_ SH281975 -13.58 116.10 -1 -13.94 116.00 20 25 1002 -13.58 116.10 TC -13.61 116.11 2 -13.84 116.10 TC 25 1002 4 186
1975 SI WA 22:00:00 TS -13.80 116.07 25 1002 bom 535 535 P_____O__PP_P_ SH281975 -13.65 116.10 -1 -14.00 116.00 20 25 1002 1.50 -13.65 116.10 TC -13.67 116.11 2 -13.89 116.10 TC 25 1002 4 186
1975 SI WA 1975-03-24 00:00:00 TS -13.93 116.07 546 546 O_____P__OO_O_ jtwc_sh SH281975 -13.80 116.10 -1 -14.06 116.00 20 25 1002 -13.80 116.10 TC -13.80 116.10 2 -14.00 116.10 TC 25 1002 4 0
1975 SI WA 01:00:00 TS -13.99 116.07 25 1002 bom 557 557 P_____O__PP_P_ SH281975 -13.88 116.10 -1 -14.10 116.00 20 25 1002 2.00 2.00 -13.88 116.10 TC -13.87 116.10 2 -14.06 116.10 TC 25 1001 4 0
1975 SI WA 03:00:00 TS -14.14 116.07 568 568 P_____P__PP_P_ SH281975 -14.04 116.11 -1 -14.22 116.00 20 25 1001 -14.04 116.11 TC -14.03 116.08 2 -14.19 116.10 TC 27 1001 4 185
1975 SI WA 04:00:00 TS -14.22 116.07 25 1001 bom 579 579 P_____O__PP_P_ SH281975 -14.13 116.11 -1 -14.30 116.00 20 25 1001 2.00 -14.13 116.11 TC -14.11 116.07 2 -14.26 116.10 TC 28 1000 5 185
1975 SI WA 06:00:00 TS -14.38 116.06 601 601 O_____P__OP_O_ jtwc_sh SH281975 -14.30 116.10 -1 -14.50 116.00 20 25 999 -14.30 116.10 TC -14.28 116.06 2 -14.40 116.10 TC 30 1000 5 0
1975 SI WA 07:00:00 TS -14.46 116.05 25 999 bom 612 612 P_____O__PP_P_ SH281975 -14.38 116.09 -1 -14.60 116.00 20 25 999 2.00 -14.38 116.09 TC -14.36 116.05 2 -14.46 116.10 TC 30 999 5 0
1975 SI WA 09:00:00 TS -14.61 116.04 625 625 P_____P__PP_P_ SH281975 -14.55 116.05 -1 -14.74 116.00 20 25 998 -14.55 116.05 TC -14.54 116.03 2 -14.59 116.10 TC 32 998 5 0
1975 SI WA 10:00:00 TS -14.69 116.03 25 998 bom 636 636 P_____O__PP_P_ SH281975 -14.63 116.03 -1 -14.80 116.00 20 25 998 2.00 -14.63 116.03 TC -14.63 116.02 2 -14.66 116.10 TC 33 998 5 0
1975 SI WA 12:00:00 TS -14.84 116.02 647 642 O_____P__OO_O_ jtwc_sh SH281975 -14.80 116.00 -1 -14.93 116.00 20 28 996 -14.80 116.00 TC -14.80 116.00 2 -14.80 116.10 TC 35 997 5 187
1975 SI WA 13:00:00 TS -14.92 116.02 30 996 bom 642 619 P_____O__PP_P_ SH281975 -14.89 116.00 -1 -15.00 116.00 20 30 996 2.50 -14.89 116.00 TC -14.88 115.99 2 -14.88 116.10 TC 35 996 5 0
1975 SI WA 15:00:00 TS -15.08 116.01 619 619 P_____P__PP_P_ SH281975 -15.06 116.00 -1 -15.13 116.00 20 36 994 -15.06 116.00 TC -15.04 115.97 2 -15.04 116.11 TC 37 995 5 0
1975 SI WA 16:00:00 TS -15.16 116.01 40 994 bom 608 597 P_____O__PP_P_ SH281975 -15.14 116.00 -1 -15.20 116.00 30 40 994 3.00 -15.14 116.00 TC -15.12 115.97 2 -15.13 116.11 TC 38 994 5 0
1975 SI WA 18:00:00 TS -15.33 116.01 597 586 O_____P__OP_O_ jtwc_sh SH281975 -15.30 116.00 -1 -15.40 116.01 30 43 991 -15.30 116.00 TC -15.27 115.95 2 -15.30 116.10 TC 40 993 5 186
1975 SI WA 19:00:00 TS -15.41 116.00 45 991 bom 586 575 P_____O__PP_P_ SH281975 -15.38 115.99 -1 -15.50 116.00 30 45 991 3.00 -15.38 115.99 TC -15.35 115.94 2 -15.39 116.09 TC 41 992 5 195
1975 SI WA 21:00:00 TS -15.56 115.96 564 564 P_____P__PP_P_ SH281975 -15.52 115.95 -1 -15.63 115.93 30 48 989 -15.52 115.95 TC -15.49 115.92 2 -15.56 116.05 TC 45 991 5 195
1975 SI WA 22:00:00 TS -15.63 115.94 50 989 bom 565 543 P_____O__PP_P_ SH281975 -15.58 115.93 -1 -15.70 115.90 30 50 989 3.50 -15.58 115.93 TC -15.56 115.92 2 -15.64 116.03 TC 46 990 5 192
1975 SI WA 1975-03-25 00:00:00 TS -15.78 115.92 543 543 O_____P__OO_O_ jtwc_sh SH281975 -15.70 115.90 -1 -15.90 115.89 30 50 988 -15.70 115.90 TC -15.70 115.90 2 -15.80 116.00 TC 50 989 4 0
1975 SI WA 01:00:00 TS -15.85 115.91 50 988 bom 532 521 P_____O__PP_P_ SH281975 -15.75 115.90 -1 -16.00 115.90 30 50 988 3.50 3.50 -15.75 115.90 TC -15.77 115.89 2 -15.87 116.00 TC 50 988 4 0
1975 SI WA 03:00:00 TS -15.97 115.91 521 521 P_____P__PP_P_ SH281975 -15.85 115.90 -1 -16.14 115.90 30 50 986 -15.85 115.90 TC -15.89 115.88 2 -16.01 116.00 TC 52 986 4 0
1975 SI WA 04:00:00 TS -16.03 115.91 50 986 bom 521 510 P_____O__PP_P_ SH281975 -15.90 115.90 -1 -16.20 115.90 30 50 986 3.50 -15.90 115.90 TC -15.95 115.87 2 -16.07 116.00 TC 53 985 4 186
1975 SI WA 06:00:00 TS -16.15 115.91 510 499 O_____P__OP_O_ jtwc_sh SH281975 -16.00 115.90 -1 -16.33 115.91 30 50 983 -16.00 115.90 TC -16.06 115.86 2 -16.20 116.00 TC 55 984 4 0
1975 SI WA 07:00:00 TS -16.21 115.90 50 983 bom 499 488 P_____O__PP_P_ SH281975 -16.06 115.89 -1 -16.40 115.90 30 50 983 3.50 -16.06 115.89 TC -16.12 115.85 2 -16.27 115.99 TC 56 983 4 190
1975 SI WA 09:00:00 TS -16.35 115.86 488 477 P_____P__PP_P_ SH281975 -16.20 115.86 -1 -16.54 115.83 30 53 980 -16.20 115.86 TC -16.23 115.83 2 -16.41 115.95 TC 60 981 4 195
1975 SI WA 10:00:00 TS -16.41 115.84 55 980 bom 479 468 P_____O__PP_P_ SH281975 -16.27 115.84 -1 -16.60 115.80 30 55 980 4.00 -16.27 115.84 TC -16.29 115.82 2 -16.47 115.93 TC 61 980 4 195
1975 SI WA 12:00:00 TS -16.53 115.82 468 457 O_____P__OO_O_ jtwc_sh SH281975 -16.40 115.80 -1 -16.66 115.79 30 58 977 -16.40 115.80 TC -16.40 115.80 2 -16.60 115.90 TC 65 978 3 194
1975 SI WA 13:00:00 TS -16.58 115.81 60 977 bom 457 446 P_____O__PP_P_ SH281975 -16.45 115.78 -1 -16.70 115.80 30 60 977 4.00 -16.45 115.78 TC -16.46 115.80 2 -16.66 115.90 TC 65 977 3 186
1975 SI WA 15:00:00 TS -16.69 115.79 446 446 P_____P__PP_P_ SH281975 -16.55 115.75 -1 -16.84 115.81 30 63 974 -16.55 115.75 TC -16.59 115.79 2 -16.76 115.90 TC 67 975 3 184
1975 SI WA 16:00:00 TS -16.74 115.78 65 973 bom 446 435 P_____O__PP_P_ SH281975 -16.60 115.73 -1 -16.90 115.80 40 65 973 4.50 -16.60 115.73 TC -16.65 115.79 2 -16.81 115.90 TC 68 974 3 192
1975 SI WA 18:00:00 TS -16.84 115.75 435 427 O_____P__OP_O_ jtwc_sh SH281975 -16.70 115.70 -1 -16.96 115.73 40 68 970 -16.70 115.70 TC -16.77 115.77 2 -16.90 115.90 TC 70 972 3 197
1975 SI WA 19:00:00 TS -16.89 115.74 70 970 bom 427 416 P_____O__PP_P_ SH281975 -16.77 115.69 -1 -17.00 115.70 40 70 970 4.50 -16.77 115.69 TC -16.83 115.76 2 -16.95 115.89 TC 71 971 4 193
1975 SI WA 21:00:00 TS -17.02 115.72 416 405 P_____P__PP_P_ SH281975 -16.91 115.68 -1 -17.14 115.70 40 73 967 -16.91 115.68 TC -16.95 115.72 2 -17.05 115.87 TC 75 969 4 192
1975 SI WA 22:00:00 TS -17.08 115.70 75 967 bom 405 394 P_____O__PP_P_ SH281975 -16.98 115.66 -1 -17.20 115.70 40 75 967 4.50 -16.98 115.66 TC -17.00 115.69 2 -17.10 115.85 TC 76 968 4 207
1975 SI WA 1975-03-26 00:00:00 TS -17.18 115.64 397 397 O_____P__OO_O_ jtwc_sh SH281975 -17.10 115.60 -1 -17.26 115.64 40 78 964 -17.10 115.60 TC -17.10 115.60 2 -17.20 115.80 TC 80 966 4 216
1975 SI WA 01:00:00 TS -17.22 115.59 80 964 bom 397 386 P_____O__PP_P_ SH281975 -17.14 115.54 -1 -17.30 115.60 40 80 964 5.00 5.00 -17.14 115.54 TC -17.14 115.53 2 -17.25 115.76 TC 80 965 4 229
1975 SI WA 03:00:00 TS -17.31 115.47 390 390 P_____P__PP_P_ SH281975 -17.22 115.39 -1 -17.44 115.53 40 80 962 -17.22 115.39 TC -17.22 115.37 2 -17.34 115.66 TC 82 963 4 233
1975 SI WA 04:00:00 TS -17.36 115.41 80 962 bom 383 383 P_____O__PP_P_ SH281975 -17.24 115.30 -1 -17.50 115.50 40 80 962 5.00 -17.24 115.30 TC -17.25 115.27 2 -17.39 115.60 TC 83 962 5 239
1975 SI WA 06:00:00 TS -17.43 115.27 387 380 O_____P__OP_O_ jtwc_sh SH281975 -17.30 115.10 -1 -17.59 115.43 40 80 960 -17.30 115.10 TC -17.32 115.07 2 -17.50 115.50 TC 85 960 5 241
1975 SI WA 07:00:00 TS -17.47 115.20 80 960 bom 380 380 P_____O__PP_P_ SH281975 -17.33 115.00 -1 -17.60 115.40 40 80 960 5.00 -17.33 115.00 TC -17.35 114.97 2 -17.57 115.47 TC 86 959 4 247
1975 SI WA 09:00:00 TS -17.52 115.07 385 385 P_____P__PP_P_ SH281975 -17.39 114.78 -1 -17.50 115.34 40 83 957 -17.39 114.78 TC -17.41 114.77 2 -17.71 115.41 TC 90 957 4 247
1975 SI WA 10:00:00 TS -17.55 115.00 85 957 bom 390 375 P_____O__PP_P_ SH281975 -17.43 114.67 -1 -17.50 115.30 40 85 957 5.00 -17.43 114.67 TC -17.44 114.67 2 -17.78 115.38 TC 91 956 5 231
1975 SI WA 12:00:00 TS -17.67 114.86 375 375 O_____P__OO_O_ jtwc_sh SH281975 -17.50 114.50 -1 -17.84 115.18 40 88 954 -17.50 114.50 TC -17.50 114.50 2 -17.90 115.30 TC 95 955 5 225
1975 SI WA 13:00:00 TS -17.74 114.80 90 954 bom 380 371 P_____O__PP_P_ SH281975 -17.55 114.45 -1 -18.00 115.10 40 90 954 5.50 -17.55 114.45 TC -17.54 114.44 2 -17.95 115.23 TC 95 954 5 231
1975 SI WA 15:00:00 TS -17.82 114.67 377 373 P_____P__PP_P_ SH281975 -17.65 114.38 -1 -18.02 114.90 40 90 951 -17.65 114.38 TC -17.63 114.34 2 -18.02 115.07 TC 97 952 4 236
1975 SI WA 16:00:00 TS -17.86 114.61 90 950 bom 373 373 P_____O__PP_P_ SH281975 -17.70 114.35 -1 -18.00 114.80 40 90 950 5.50 -17.70 114.35 TC -17.67 114.30 2 -18.05 114.98 TC 98 951 4 236
1975 SI WA 18:00:00 TS -17.94 114.50 379 370 O_____P__OP_O_ jtwc_sh SH281975 -17.80 114.30 -1 -18.06 114.67 40 93 947 -17.80 114.30 TC -17.76 114.22 2 -18.10 114.80 TC 100 950 4 236
1975 SI WA 19:00:00 TS -17.97 114.44 95 947 bom 375 375 P_____O__PP_P_ SH281975 -17.84 114.26 -1 -18.10 114.60 40 95 947 5.50 -17.84 114.26 TC -17.81 114.18 2 -18.12 114.71 TC 100 949 4 244
1975 SI WA 21:00:00 TS -18.03 114.30 380 376 P_____P__PP_P_ SH281975 -17.91 114.16 -1 -18.17 114.41 40 98 944 -17.91 114.16 TC -17.89 114.11 2 -18.16 114.54 TC 102 947 4 247
1975 SI WA 22:00:00 TS -18.06 114.22 100 944 bom 376 376 P_____O__PP_P_ SH281975 -17.94 114.11 -1 -18.20 114.30 40 100 944 6.00 -17.94 114.11 TC -17.93 114.08 2 -18.17 114.46 TC 103 946 4 252
1975 SI WA 1975-03-27 00:00:00 TS -18.10 114.08 382 382 O_____P__OO_O_ jtwc_sh SH281975 -18.00 114.00 -1 -18.20 114.09 40 100 942 -18.00 114.00 TC -18.00 114.00 2 -18.20 114.30 TC 105 944 4 251
1975 SI WA 01:00:00 TS -18.12 114.02 100 942 bom 388 379 P_____O__PP_P_ SH281975 -18.04 113.95 -1 -18.20 114.00 40 100 942 6.00 6.00 -18.04 113.95 TC -18.03 113.95 2 -18.21 114.22 TC 105 943 4 244
1975 SI WA 03:00:00 TS -18.18 113.89 386 386 P_____P__PP_P_ SH281975 -18.11 113.86 -1 -18.26 113.85 40 100 940 -18.11 113.86 TC -18.08 113.84 2 -18.24 114.08 TC 107 942 4 242
1975 SI WA 04:00:00 TS -18.22 113.84 100 940 bom 391 382 P_____O__PP_P_ SH281975 -18.15 113.81 -1 -18.30 113.80 40 100 940 6.00 -18.15 113.81 TC -18.11 113.78 2 -18.26 114.02 TC 108 941 4 241
1975 SI WA 06:00:00 TS -18.27 113.73 388 388 O_____P__OP_O_ jtwc_sh SH281975 -18.20 113.70 -1 -18.37 113.74 40 100 938 -18.20 113.70 TC -18.15 113.66 2 -18.30 113.90 TC 110 940 3 243
1975 SI WA 07:00:00 TS -18.29 113.68 100 938 bom 388 388 P_____O__PP_P_ SH281975 -18.21 113.64 -1 -18.40 113.70 40 100 938 6.00 -18.21 113.64 TC -18.16 113.60 2 -18.33 113.85 TC 110 939 4 249
1975 SI WA 09:00:00 TS -18.33 113.56 395 395 P_____P__PP_P_ SH281975 -18.22 113.50 -1 -18.47 113.56 40 103 937 -18.22 113.50 TC -18.18 113.48 2 -18.41 113.75 TC 112 938 4 251
1975 SI WA 10:00:00 TS -18.35 113.50 105 937 bom 392 392 P_____O__PP_P_ SH281975 -18.21 113.43 -1 -18.50 113.50 40 105 937 6.00 -18.21 113.43 TC -18.19 113.42 2 -18.44 113.70 TC 113 938 3 254
1975 SI WA 12:00:00 TS -18.38 113.39 396 396 O_____P__OO_O_ jtwc_sh SH281975 -18.20 113.30 -1 -18.57 113.44 40 105 936 -18.20 113.30 TC -18.20 113.30 2 -18.50 113.60 TC 115 937 3 256
1975 SI WA 13:00:00 TS -18.39 113.34 105 936 bom 398 398 P_____O__PP_P_ SH281975 -18.20 113.24 -1 -18.60 113.40 40 105 936 6.00 -18.20 113.24 TC -18.20 113.26 2 -18.51 113.54 TC 115 936 3 264
1975 SI WA 15:00:00 TS -18.39 113.23 400 400 P_____P__PP_P_ SH281975 -18.21 113.14 -1 -18.61 113.28 40 105 934 -18.21 113.14 TC -18.20 113.17 2 -18.52 113.41 TC 115 935 3 269
1975 SI WA 16:00:00 TS -18.39 113.17 105 934 bom 400 400 P_____O__PP_P_ SH281975 -18.21 113.09 -1 -18.60 113.20 40 105 934 6.00 -18.21 113.09 TC -18.19 113.13 2 -18.52 113.34 TC 115 934 4 275
1975 SI WA 18:00:00 TS -18.38 113.04 405 405 O_____P__OP_O_ jtwc_sh SH281975 -18.20 113.00 -1 -18.61 113.00 40 108 932 -18.20 113.00 TC -18.17 113.04 2 -18.50 113.20 TC 115 933 4 278
1975 SI WA 19:00:00 TS -18.37 112.98 110 932 bom 405 405 P_____O__PP_P_ SH281975 -18.19 112.96 -1 -18.60 112.90 40 110 932 6.50 -18.19 112.96 TC -18.16 113.00 2 -18.49 113.13 TC 115 932 4 289
1975 SI WA 21:00:00 TS -18.32 112.86 418 418 P_____P__PP_P_ SH281975 -18.15 112.87 -1 -18.54 112.75 40 110 930 -18.15 112.87 TC -18.14 112.90 2 -18.46 113.00 TC 117 931 4 292
1975 SI WA 22:00:00 TS -18.30 112.81 110 930 bom 421 421 P_____O__PP_P_ SH281975 -18.13 112.82 -1 -18.50 112.70 40 110 930 6.50 -18.13 112.82 TC -18.12 112.84 2 -18.44 112.93 TC 118 931 4 292
1975 SI WA 1975-03-28 00:00:00 TS -18.26 112.69 424 424 O_____P__OO_O_ jtwc_sh SH281975 -18.10 112.70 -1 -18.43 112.64 40 110 929 -18.10 112.70 TC -18.10 112.70 2 -18.40 112.80 TC 120 930 4 289
1975 SI WA 01:00:00 TS -18.24 112.62 110 929 bom 438 438 P_____O__PP_P_ SH281975 -18.10 112.62 -1 -18.40 112.60 40 110 929 6.50 6.50 4 -18.10 112.62 TC -18.09 112.61 2 -18.38 112.73 TC 120 930 4 283
1975 SI WA 03:00:00 TS -18.21 112.47 442 442 P_____P__PP_P_ SH281975 -18.10 112.43 -1 -18.33 112.47 40 110 929 -18.10 112.43 TC -18.06 112.40 2 -18.33 112.60 TC 120 930 5 281
1975 SI WA 04:00:00 TS -18.19 112.38 110 930 bom 446 446 P_____O__PP_P_ SH281975 -18.10 112.32 -1 -18.30 112.40 40 110 930 6.50 -18.10 112.32 TC -18.05 112.29 2 -18.31 112.53 TC 120 930 5 275
1975 SI WA 06:00:00 TS -18.19 112.21 454 454 O_____P__OP_O_ jtwc_sh SH281975 -18.10 112.10 -1 -18.29 112.27 40 110 930 -18.10 112.10 TC -18.03 112.06 2 -18.30 112.40 TC 120 930 5 272
1975 SI WA 07:00:00 TS -18.19 112.11 110 931 bom 458 458 P_____O__PP_P_ SH281975 -18.08 111.99 -1 -18.30 112.20 40 110 931 6.50 -18.08 111.99 TC -18.02 111.95 2 -18.32 112.34 TC 119 930 6 266
1975 SI WA 09:00:00 TS -18.20 111.92 468 468 P_____P__PP_P_ SH281975 -18.04 111.75 -1 -18.35 112.00 40 110 932 -18.04 111.75 TC -18.00 111.72 2 -18.39 112.22 TC 117 931 6 264
1975 SI WA 10:00:00 TS -18.22 111.82 110 933 bom 473 468 P_____O__PP_P_ SH281975 -18.02 111.63 -1 -18.40 111.90 40 110 933 6.50 -18.02 111.63 TC -18.00 111.61 2 -18.43 112.15 TC 116 931 6 259
1975 SI WA 12:00:00 TS -18.26 111.63 474 474 O_____P__OO_O_ jtwc_sh SH281975 -18.00 111.40 -1 -18.54 111.77 40 106 934 -18.00 111.40 TC -18.00 111.40 2 -18.50 112.00 TC 115 933 5 258
1975 SI WA 13:00:00 TS -18.27 111.53 105 935 bom 479 479 P_____O__PP_P_ SH281975 -18.01 111.28 -1 -18.60 111.70 40 105 935 6.00 -18.01 111.28 TC -18.01 111.30 2 -18.52 111.91 TC 115 933 6 262
1975 SI WA 15:00:00 TS -18.30 111.33 491 491 P_____P__PP_P_ SH281975 -18.04 111.06 -1 -18.62 111.50 40 105 936 -18.04 111.06 TC -18.02 111.12 2 -18.53 111.71 TC 115 935 6 265
1975 SI WA 16:00:00 TS -18.30 111.24 105 937 bom 497 497 P_____O__PP_P_ SH281975 -18.06 110.96 -1 -18.60 111.40 40 105 937 6.00 -18.06 110.96 TC -18.04 111.03 2 -18.53 111.60 TC 115 935 5 269
1975 SI WA 18:00:00 TS -18.30 111.07 503 503 O_____P__OP_O_ jtwc_sh SH281975 -18.10 110.80 -1 -18.54 111.26 40 105 938 -18.10 110.80 TC -18.07 110.88 2 -18.50 111.40 TC 115 937 5 272
1975 SI WA 19:00:00 TS -18.29 111.00 105 939 bom 510 510 P_____O__PP_P_ SH281975 -18.12 110.74 -1 -18.50 111.20 40 105 939 6.00 -18.12 110.74 TC -18.09 110.81 2 -18.47 111.30 TC 114 937 4 278
1975 SI WA 21:00:00 TS -18.27 110.86 516 516 P_____P__PP_P_ SH281975 -18.15 110.65 -1 -18.43 111.08 40 101 939 -18.15 110.65 TC -18.13 110.70 2 -18.39 111.11 TC 112 938 4 279
1975 SI WA 22:00:00 TS -18.26 110.80 100 940 bom 523 523 P_____O__PP_P_ SH281975 -18.17 110.62 -1 -18.40 111.00 40 100 940 6.00 -18.17 110.62 TC -18.15 110.66 2 -18.35 111.03 TC 111 938 3 277
1975 SI WA 1975-03-29 00:00:00 TS -18.25 110.69 529 529 O_____P__OO_O_ jtwc_sh SH281975 -18.20 110.60 -1 -18.31 110.71 40 100 941 -18.20 110.60 TC -18.20 110.60 2 -18.30 110.90 TC 110 940 3 269
1975 SI WA 01:00:00 TS -18.26 110.65 100 942 bom 536 536 P_____O__PP_P_ SH281975 -18.21 110.60 -1 -18.30 110.60 40 100 942 5.00 6.00 -18.21 110.60 TC -18.22 110.59 2 -18.31 110.85 TC 109 940 2 201
1975 SI WA 03:00:00 TS -18.33 110.64 536 521 P_____P__PP_P_ SH281975 -18.24 110.62 -1 -18.42 110.57 40 100 943 -18.24 110.62 TC -18.26 110.59 2 -18.36 110.80 TC 107 942 2 0
1975 SI WA 04:00:00 TS -18.36 110.66 100 944 bom 521 521 P_____O__PP_P_ SH281975 -18.26 110.64 -1 -18.50 110.60 40 100 944 6.00 -18.26 110.64 TC -18.28 110.61 2 -18.40 110.79 TC 106 943 2 155
1975 SI WA 06:00:00 TS -18.43 110.70 521 512 O_____P__OP_O_ jtwc_sh SH281975 -18.30 110.70 -1 -18.57 110.66 40 96 945 -18.30 110.70 TC -18.33 110.66 2 -18.50 110.80 TC 105 945 2 144
1975 SI WA 07:00:00 TS -18.47 110.73 95 946 bom 512 506 P_____O__PP_P_ SH281975 -18.33 110.73 -1 -18.60 110.70 40 95 946 5.50 -18.33 110.73 TC -18.35 110.69 2 -18.55 110.81 TC 104 945 3 140
1975 SI WA 09:00:00 TS -18.53 110.80 506 497 P_____P__PP_P_ SH281975 -18.39 110.80 -1 -18.66 110.76 40 95 947 -18.39 110.80 TC -18.41 110.77 2 -18.65 110.87 TC 102 947 3 138
1975 SI WA 10:00:00 TS -18.57 110.83 95 948 bom 497 490 P_____O__PP_P_ SH281975 -18.43 110.84 -1 -18.70 110.80 40 95 948 5.50 -18.43 110.84 TC -18.44 110.82 2 -18.70 110.91 TC 101 947 3 135
1975 SI WA 12:00:00 TS -18.66 110.92 482 475 O_____P__OO_O_ jtwc_sh SH281975 -18.50 110.90 -1 -18.84 110.93 40 91 950 -18.50 110.90 TC -18.50 110.90 2 -18.80 111.00 TC 100 949 3 136
1975 SI WA 13:00:00 TS -18.70 110.96 90 951 bom 475 466 P_____O__PP_P_ SH281975 -18.53 110.92 -1 -18.90 111.00 40 90 951 5.50 -18.53 110.92 TC -18.53 110.92 2 -18.84 111.05 TC 99 949 3 134
1975 SI WA 15:00:00 TS -18.77 111.04 466 459 P_____P__PP_P_ SH281975 -18.59 110.94 -1 -18.97 111.14 40 90 953 -18.59 110.94 TC -18.58 110.96 2 -18.91 111.15 TC 97 952 3 133
1975 SI WA 16:00:00 TS -18.80 111.08 90 954 bom 459 451 P_____O__PP_P_ SH281975 -18.63 110.96 -1 -19.00 111.20 40 90 954 5.50 -18.63 110.96 TC -18.61 110.98 2 -18.94 111.20 TC 96 952 3 137
1975 SI WA 18:00:00 TS -18.87 111.15 451 444 O_____P__OP_O_ jtwc_sh SH281975 -18.70 111.00 -1 -19.07 111.27 40 86 956 -18.70 111.00 TC -18.67 111.03 2 -19.00 111.30 TC 95 955 3 139
1975 SI WA 19:00:00 TS -18.91 111.18 85 958 bom 444 436 P_____O__PP_P_ SH281975 -18.74 111.03 -1 -19.10 111.30 40 85 958 5.00 -18.74 111.03 TC -18.71 111.06 2 -19.03 111.33 TC 93 955 3 137
1975 SI WA 21:00:00 TS -18.98 111.25 436 429 P_____P__PP_P_ SH281975 -18.82 111.11 -1 -19.17 111.37 40 81 960 -18.82 111.11 TC -18.81 111.13 2 -19.08 111.39 TC 90 958 3 138
1975 SI WA 22:00:00 TS -19.02 111.29 80 961 bom 429 413 P_____O__PP_P_ SH281975 -18.87 111.17 -1 -19.20 111.40 40 80 961 5.00 -18.87 111.17 TC -18.87 111.18 2 -19.11 111.42 TC 88 958 4 137
1975 SI WA 1975-03-30 00:00:00 TS -19.13 111.39 413 405 O_____P__OO_O_ jtwc_sh SH281975 -19.00 111.30 -1 -19.25 111.45 40 80 963 -19.00 111.30 TC -19.00 111.30 2 -19.20 111.50 TC 85 961 5 137
1975 SI WA 01:00:00 TS -19.20 111.46 80 964 bom 398 374 P_____O__PP_P_ SH281975 -19.08 111.38 -1 -19.30 111.50 40 80 964 4.00 5.00 -19.08 111.38 TC -19.08 111.38 2 -19.26 111.56 TC 84 961 7 137
1975 SI WA 03:00:00 TS -19.38 111.64 374 359 P_____P__PP_P_ SH281975 -19.27 111.57 -1 -19.48 111.67 40 80 965 -19.27 111.57 TC -19.25 111.56 2 -19.41 111.71 TC 82 963 8 136
1975 SI WA 04:00:00 TS -19.48 111.75 80 966 bom 359 322 P_____O__PP_P_ SH281975 -19.38 111.68 -1 -19.60 111.80 40 80 966 5.00 -19.38 111.68 TC -19.35 111.66 2 -19.50 111.80 TC 81 963 9 135
1975 SI WA 06:00:00 TS -19.70 111.99 322 306 O_____P__OP_O_ jtwc_sh SH281975 -19.60 111.90 -1 -19.87 112.14 40 80 966 -19.60 111.90 TC -19.56 111.87 2 -19.70 112.00 TC 80 965 10 135
1975 SI WA 07:00:00 TS -19.82 112.10 80 966 bom 306 276 P_____O__PP_P_ SH281975 -19.71 112.01 -1 -20.00 112.30 40 80 966 5.00 -19.71 112.01 TC -19.67 111.99 2 -19.80 112.11 TC 80 965 9 136
1975 SI WA 09:00:00 TS -20.04 112.33 276 260 P_____P__PP_P_ SH281975 -19.95 112.24 -1 -20.21 112.52 40 80 966 -19.95 112.24 TC -19.91 112.23 2 -20.03 112.34 TC 80 965 9 137
1975 SI WA 10:00:00 TS -20.15 112.44 80 966 bom 252 221 P_____O__PP_P_ SH281975 -20.07 112.36 -1 -20.30 112.60 40 80 966 5.00 -20.07 112.36 TC -20.04 112.35 2 -20.15 112.46 TC 80 965 9 138
1975 SI WA 12:00:00 TS -20.38 112.65 215 206 O_____P__OO_O_ jtwc_sh SH281975 -20.30 112.60 -1 -20.48 112.72 40 76 966 -20.30 112.60 TC -20.30 112.60 2 -20.40 112.70 TC 80 966 9 138
1975 SI WA 13:00:00 TS -20.49 112.76 75 967 bom 199 169 P_____O__PP_P_ SH281975 -20.39 112.72 -1 -20.60 112.80 40 75 967 4.50 -20.39 112.72 TC -20.41 112.73 2 -20.52 112.81 TC 80 966 10 137
1975 SI WA 15:00:00 TS -20.73 113.00 169 154 P_____P__PP_P_ SH281975 -20.57 112.95 -1 -20.93 113.06 40 75 967 -20.57 112.95 TC -20.63 112.99 2 -20.78 113.01 TC 80 966 10 138
1975 SI WA 16:00:00 TS -20.86 113.12 75 968 bom 145 115 P_____O__PP_P_ SH281975 -20.67 113.07 -1 -21.10 113.20 40 75 968 4.50 -20.67 113.07 TC -20.74 113.12 2 -20.91 113.11 TC 80 966 10 141
1975 SI WA 18:00:00 TS -21.13 113.35 115 99 O_____P__OP_O_ jtwc_sh SH281975 -20.90 113.30 -1 -21.36 113.41 40 71 968 -20.90 113.30 TC -20.99 113.38 2 -21.20 113.30 TC 80 967 10 142
1975 SI WA 19:00:00 TS -21.27 113.46 70 969 bom 84 45 P_____O__PP_P_ SH281975 -21.04 113.43 -1 -21.50 113.50 40 70 969 4.50 -21.04 113.43 TC -21.13 113.51 2 -21.34 113.41 TC 79 967 11 146
1975 SI WA 21:00:00 TS -21.59 113.69 45 30 P_____P__PP_P_ SH281975 -21.37 113.70 -1 -21.81 113.72 40 70 969 -21.37 113.70 TC -21.44 113.73 2 -21.65 113.62 TC 77 968 12 149
1975 SI WA 22:00:00 TS -21.78 113.79 70 969 bom 23 0 P_____O__PP_P_ SH281975 -21.56 113.82 -1 -22.00 113.80 40 70 969 4.50 -21.56 113.82 TC -21.61 113.83 2 -21.82 113.72 TC 76 968 13 159
1975 SI WA 1975-03-31 00:00:00 TS -22.19 113.94 0 0 O_____P__OO_O_ jtwc_sh SH281975 -22.00 114.00 -1 -22.46 113.87 40 70 969 -22.00 114.00 TC -22.00 114.00 2 -22.20 113.90 TC 75 969 14 164
1975 SI WA 01:00:00 TS -22.42 113.99 70 970 bom 0 0 P_____O__PP_P_ SH281975 -22.25 114.04 -1 -22.70 113.90 40 70 970 4.50 -22.25 114.04 TC -22.23 114.04 2 -22.42 113.98 TC 72 969 15 172
1975 SI WA 03:00:00 TS -22.92 114.06 0 0 P_____P__PP_P_ SH281975 -22.80 114.04 -1 -23.17 114.03 40 70 970 -22.80 114.04 TC -22.73 114.08 2 -22.90 114.12 TC 67 969 15 173
1975 SI WA 04:00:00 TS -23.18 114.08 70 970 bom 0 0 P_____O__PP_P_ SH281975 -23.10 114.02 -1 -23.40 114.10 40 70 970 -23.10 114.02 TC -23.00 114.08 2 -23.16 114.18 TC 65 969 16 175
1975 SI WA 06:00:00 TS -23.71 114.13 0 0 O_____P__OP_O_ jtwc_sh SH281975 -23.70 114.00 -1 -23.79 114.23 40 63 971 -23.70 114.00 TC -23.58 114.08 2 -23.70 114.30 TC 60 970 16 174
1975 SI WA 07:00:00 TS -23.98 114.17 60 972 bom 0 0 P_____O__PP_P_ SH281975 -23.98 114.00 -1 -24.00 114.30 30 60 972 -23.98 114.00 TC -23.88 114.08 2 -23.96 114.37 TC 58 970 17 171
1975 SI WA 09:00:00 TS -24.53 114.27 0 0 P_____P__PP_P_ SH281975 -24.55 114.03 -1 -24.51 114.50 30 56 972 -24.55 114.03 TC -24.49 114.09 2 -24.48 114.51 TC 55 971 17 170
1975 SI WA 10:00:00 TS -24.82 114.33 55 973 bom 0 0 P_____O__PP_P_ SH281975 -24.83 114.07 -1 -24.80 114.60 30 55 973 -24.83 114.07 TC -24.79 114.11 2 -24.75 114.57 TC 53 971 18 169
1975 SI WA 12:00:00 TS -25.41 114.46 0 0 O_____P__OO_O_ jtwc_sh SH281975 -25.40 114.20 -1 -25.44 114.76 30 51 973 -25.40 114.20 TC -25.40 114.20 2 -25.30 114.70 TC 50 973 18 168
1975 SI WA 13:00:00 TS -25.71 114.53 50 974 bom 0 0 P_____O__PP_P_ SH281975 -25.69 114.31 -1 -25.80 114.80 30 50 974 -25.69 114.31 TC -25.68 114.30 2 -25.59 114.75 TC 48 973 19 168
1975 SI WA 15:00:00 TS -26.34 114.68 0 0 P_____P__PP_P_ SH281975 -26.26 114.60 -1 -26.62 114.72 30 46 974 -26.26 114.60 TC -26.24 114.53 2 -26.20 114.83 TC 45 975 19 168
1975 SI WA 16:00:00 TS -26.65 114.76 45 975 bom 0 0 P_____O__PP_P_ SH281975 -26.54 114.76 -1 -27.00 114.70 30 45 975 -26.54 114.76 TC -26.52 114.67 2 -26.50 114.87 TC 43 976 19 162
1975 SI WA 18:00:00 TS -27.24 114.99 0 0 O_____P__OP_O_ jtwc_sh SH281975 -27.10 115.10 -1 -27.57 114.87 30 41 978 -27.10 115.10 TC -27.07 114.98 2 -27.10 115.00 TC 40 978 18 160
1975 SI WA 19:00:00 TS -27.52 115.12 40 980 bom 0 0 P_____O__PP_P_ SH281975 -27.37 115.25 -1 -27.80 115.00 30 40 980 -27.37 115.25 TC -27.35 115.14 2 -27.38 115.08 TC 39 979 18 156
1975 SI WA 21:00:00 TS -28.05 115.41 0 0 P_____P__PP_P_ SH281975 -27.91 115.55 -1 -28.20 115.25 30 36 984 -27.91 115.55 TC -27.89 115.48 2 -27.91 115.28 TC 37 983 18 154
1975 SI WA 22:00:00 TS -28.32 115.56 35 987 bom 0 0 P_____O__PP_P_ SH281975 -28.17 115.70 -1 -28.40 115.40 30 35 987 -28.17 115.70 TC -28.16 115.66 2 -28.17 115.41 TC 36 985 18 152
1975 SI WA 1975-04-01 00:00:00 TS -28.85 115.89 0 0 O_____P__OO_O_ jtwc_sh SH281975 -28.70 116.00 -1 -28.81 115.71 30 31 991 -28.70 116.00 TC -28.70 116.00 2 -28.70 115.70 TC 35 989 18 151
1975 SI WA 01:00:00 TS -29.13 116.06 30 994 bom 0 0 P_____O__PP_P_ SH281975 -28.97 116.15 -1 -29.10 115.90 20 30 994 -28.97 116.15 TC -28.97 116.17 2 -28.97 115.87 TC 35 989 21 152
1975 SI WA 03:00:00 TS -29.75 116.44 0 0 P_____P__PP_P_ SH281975 -29.51 116.45 -1 -30.03 116.34 20 30 994 -29.51 116.45 TC -29.49 116.48 2 -29.54 116.26 TC 35 992 21 152
1975 SI WA 04:00:00 TS -30.07 116.63 30 995 bom 0 0 P_____O__PP_P_ SH281975 -29.77 116.60 -1 -30.50 116.60 20 30 995 -29.77 116.60 TC -29.75 116.64 2 -29.82 116.47 TC 35 992 21 150
1975 SI WA 06:00:00 TS -30.65 117.03 0 0 O_____P__OP_O_ jtwc_sh SH281975 -30.30 116.90 -1 -31.22 117.23 20 30 995 -30.30 116.90 TC -30.27 116.94 2 -30.40 116.90 TC 35 995 20 150
1975 SI WA 07:00:00 TS -30.92 117.21 30 996 bom 0 0 P_____O__PP___ SH281975 -30.56 117.05 -1 -31.50 117.50 20 30 996 -30.56 117.05 TC -30.52 117.08 2 TC 18 152
1975 SI WA 09:00:00 TS -31.46 117.53 0 0 P_____P__PP___ SH281975 -31.06 117.35 -1 -31.91 117.81 20 30 996 -31.06 117.35 TC -31.04 117.37 2 TC 19 154
1975 SI WA 10:00:00 TS -31.77 117.69 30 997 bom 0 0 P_____O__PP___ SH281975 -31.31 117.50 -1 -32.10 117.90 20 30 997 -31.31 117.50 TC -31.29 117.51 2 TC 20 158
1975 SI WA 12:00:00 TS -32.36 117.96 0 0 O_____P__OO___ jtwc_sh SH281975 -31.80 117.80 -1 -32.55 118.04 20 30 997 -31.80 117.80 TC -31.80 117.80 6 22 162
1975 SI WA 13:00:00 TS -32.82 118.10 30 997 bom 0 0 ______O_______ SH281975 -1 -32.80 118.10 20 30 997 TC 6 20 166
1975 SI WA 15:00:00 TS -33.32 118.24 0 0 ______P_______ SH281975 -1 -33.34 118.22 20 30 996 TC 6 16 166
1975 SI WA 16:00:00 TS -33.57 118.33 30 996 bom 0 0 ______O_______ SH281975 -1 -33.60 118.30 20 30 996 TC 6 15 158
1975 SI WA 18:00:00 TS -34.00 118.57 0 0 ______P_______ -1 -34.00 118.55 20 26 995 6 15 153
1975 SI WA 19:00:00 TS -34.22 118.73 25 995 bom 0 0 ______O_______ -1 -34.20 118.70 20 25 995 6 16 149
1975 SI WA 21:00:00 TS -34.69 119.07 28 28 ______P_______ -1 -34.65 118.98 20 25 994 6 17 147
1975 SI WA 22:00:00 TS -34.93 119.29 25 994 bom 44 44 ______O_______ -1 -34.90 119.20 50 25 994 6 20 137
1975 SI WA 1975-04-02 00:00:00 TS -35.43 119.90 110 110 ______P_______ -1 -35.45 119.91 50 25 994 21 133
1975 SI WA 01:00:00 TS -35.65 120.24 25 994 bom 152 152 ______O_______ -1 -35.70 120.30 50 25 994 20 126
1975 SI WA 03:00:00 TS -36.02 120.90 213 213 ______P_______ -1 -36.06 120.99 50 25 994 19 124
1975 SI WA 04:00:00 TS -36.18 121.23 25 994 bom 247 247 ______O_______ -1 -36.20 121.30 50 25 994 17 122
1975 SI WA 06:00:00 TS -36.48 121.82 279 279 ______P_______ -1 -36.46 121.84 50 25 993 17 122
1975 SI WA 07:00:00 TS -36.62 122.10 25 993 bom 289 289 ______O_______ -1 -36.60 122.10 50 25 993 16 123
1975 SI WA 09:00:00 TS -36.93 122.68 323 323 ______P_______ -1 -36.93 122.70 50 25 993 17 123
1975 SI WA 10:00:00 TS -37.09 122.97 25 993 bom 345 345 ______O_______ -1 -37.10 123.00 50 25 993 16 126
1975 SI WA 12:00:00 TS -37.41 123.52 379 379 ______P_______ -1 -37.42 123.53 50 25 993 17 128
1975 SI WA 13:00:00 TS -37.60 123.79 25 993 bom 404 404 ______O_______ -1 -37.60 123.80 50 25 993 19 133
1975 SI WA 15:00:00 TS -38.04 124.38 458 458 ______P_______ -1 -38.06 124.39 50 25 993 20 135
1975 SI WA 16:00:00 TS -38.28 124.68 25 993 bom 497 497 ______O_______ -1 -38.30 124.70 50 25 993 21 136
1975 SI WA 18:00:00 TS -38.77 125.29 566 566 ______P_______ -1 -38.74 125.29 50 25 992 21 136
1975 SI WA 19:00:00 TS -39.05 125.62 25 992 bom 596 596 ______O_______ -1 -39.00 125.60 50 25 992 24 138
1975 SI WA 21:00:00 TS -39.68 126.34 691 691 ______P_______ -1 -39.65 126.31 50 25 992 26 139
1975 SI WA 22:00:00 TS -40.02 126.73 25 992 bom 736 736 ______O_______ -1 -40.00 126.70 50 25 992 27 137
1975 SI WA 1975-04-03 00:00:00 TS -40.68 127.57 839 839 ______P_______ -1 -40.67 127.55 50 25 992 27 136
1975 SI WA 01:00:00 NR -41.00 128.00 25 992 bom 884 ______O_______ -1 -41.00 128.00 50 25 992 27 134